createdAt,value
2023-04-16T00:03:44.363Z,7.43
2023-04-16T00:07:46.368Z,7.40
2023-04-16T00:11:48.133Z,7.40
2023-04-16T00:15:49.953Z,7.37
2023-04-16T00:19:51.872Z,7.33
2023-04-16T00:23:53.798Z,7.29
2023-04-16T00:27:55.980Z,7.28
2023-04-16T00:31:57.853Z,7.29
2023-04-16T00:35:59.778Z,7.28
2023-04-16T00:40:01.988Z,7.25
2023-04-16T00:44:04.151Z,7.24
2023-04-16T00:48:06.162Z,7.22
2023-04-16T00:52:08.196Z,7.19
2023-04-16T00:56:10.603Z,7.18
2023-04-16T01:00:13.197Z,7.16
2023-04-16T01:04:15.463Z,7.17
2023-04-16T01:08:22.268Z,7.19
2023-04-16T01:12:24.068Z,7.20
2023-04-16T01:16:27.440Z,7.24
2023-04-16T01:20:29.848Z,7.23
2023-04-16T01:24:32.208Z,7.24
2023-04-16T01:28:34.195Z,7.24
2023-04-16T01:32:36.364Z,7.24
2023-04-16T01:36:38.303Z,7.28
2023-04-16T01:40:40.265Z,7.28
2023-04-16T01:44:42.104Z,7.28
2023-04-16T01:48:44.074Z,7.26
2023-04-16T01:52:46.082Z,7.28
2023-04-16T01:56:48.123Z,7.27
2023-04-16T02:00:50.186Z,7.28
2023-04-16T02:04:52.038Z,7.29
2023-04-16T02:08:54.156Z,7.29
2023-04-16T02:12:56.720Z,7.28
2023-04-16T02:16:59.053Z,7.29
2023-04-16T02:21:21.126Z,7.30
2023-04-16T02:25:24.447Z,7.30
2023-04-16T02:29:29.991Z,7.27
2023-04-16T02:33:39.421Z,7.24
2023-04-16T02:37:41.940Z,7.21
2023-04-16T02:41:43.805Z,7.20
2023-04-16T02:45:45.748Z,7.20
2023-04-16T02:49:47.704Z,7.19
2023-04-16T02:53:49.565Z,7.22
2023-04-16T02:57:53.017Z,7.23
2023-04-16T03:01:55.128Z,7.23
2023-04-16T03:05:57.246Z,7.23
2023-04-16T03:09:59.068Z,7.23
2023-04-16T03:14:00.923Z,7.23
2023-04-16T03:18:03.451Z,7.22
2023-04-16T03:22:05.568Z,7.20
2023-04-16T03:26:09.486Z,7.15
2023-04-16T03:30:12.704Z,7.13
2023-04-16T03:34:14.587Z,7.10
2023-04-16T03:38:16.957Z,7.09
2023-04-16T03:42:18.873Z,7.07
2023-04-16T03:46:21.144Z,7.07
2023-04-16T03:50:23.231Z,7.05
2023-04-16T03:54:25.093Z,7.03
2023-04-16T03:58:36.266Z,7.04
2023-04-16T04:02:38.372Z,7.02
2023-04-16T04:06:40.394Z,7.04
2023-04-16T04:10:42.306Z,7.04
2023-04-16T04:14:46.479Z,7.04
2023-04-16T04:18:48.529Z,7.05
2023-04-16T04:22:51.025Z,7.03
2023-04-16T04:26:55.385Z,7.04
2023-04-16T04:30:58.442Z,7.04
2023-04-16T04:35:02.126Z,7.04
2023-04-16T04:39:04.160Z,7.07
2023-04-16T04:43:06.076Z,7.09
2023-04-16T04:47:08.460Z,7.10
2023-04-16T04:51:10.744Z,7.11
2023-04-16T04:55:14.295Z,7.10
2023-04-16T04:59:16.483Z,7.11
2023-04-16T05:03:21.776Z,7.12
2023-04-16T05:07:23.778Z,7.14
2023-04-16T05:11:25.678Z,7.13
2023-04-16T05:15:27.561Z,7.15
2023-04-16T05:19:29.587Z,7.16
2023-04-16T05:23:31.474Z,7.16
2023-04-16T05:27:33.276Z,7.18
2023-04-16T05:31:35.076Z,7.18
2023-04-16T05:35:36.995Z,7.17
2023-04-16T05:39:38.766Z,7.16
2023-04-16T05:43:40.694Z,7.14
2023-04-16T05:47:42.562Z,7.15
2023-04-16T05:51:44.678Z,7.16
2023-04-16T05:55:47.274Z,7.19
2023-04-16T05:59:49.133Z,7.19
2023-04-16T06:03:51.040Z,7.18
2023-04-16T06:07:53.277Z,7.19
2023-04-16T06:11:55.606Z,7.19
2023-04-16T06:15:57.415Z,7.20
2023-04-16T06:19:59.292Z,7.20
2023-04-16T06:24:01.351Z,7.21
2023-04-16T06:28:03.242Z,7.22
2023-04-16T06:32:05.829Z,7.23
2023-04-16T06:36:07.701Z,7.25
2023-04-16T06:40:09.946Z,7.29
2023-04-16T06:44:11.965Z,7.29
2023-04-16T06:48:13.843Z,7.31
2023-04-16T06:52:15.860Z,7.33
2023-04-16T06:56:17.714Z,7.37
2023-04-16T07:00:19.549Z,7.40
2023-04-16T07:04:21.964Z,7.43
2023-04-16T07:08:23.830Z,7.46
2023-04-16T07:12:25.878Z,7.49
2023-04-16T07:16:27.747Z,7.50
2023-04-16T07:20:29.621Z,7.50
2023-04-16T07:24:31.460Z,7.50
2023-04-16T07:28:33.255Z,7.52
2023-04-16T07:32:35.654Z,7.53
2023-04-16T07:36:37.499Z,7.53
2023-04-16T07:40:39.394Z,7.56
2023-04-16T07:44:41.447Z,7.60
2023-04-16T07:48:43.431Z,7.66
2023-04-16T07:52:46.725Z,7.72
2023-04-16T07:56:48.574Z,7.79
2023-04-16T08:00:51.063Z,7.85
2023-04-16T08:04:53.096Z,7.93
2023-04-16T08:08:54.960Z,7.94
2023-04-16T08:12:57.115Z,7.98
2023-04-16T08:16:58.986Z,8.02
2023-04-16T08:21:00.861Z,8.04
2023-04-16T08:25:04.417Z,8.07
2023-04-16T08:29:06.215Z,8.10
2023-04-16T08:33:08.322Z,8.14
2023-04-16T08:37:10.550Z,8.18
2023-04-16T08:41:14.195Z,8.22
2023-04-16T08:45:18.224Z,8.22
2023-04-16T08:49:20.122Z,8.21
2023-04-16T08:53:29.093Z,8.17
2023-04-16T08:57:47.588Z,8.16
2023-04-16T09:01:49.896Z,8.16
2023-04-16T09:05:53.088Z,8.24
2023-04-16T09:09:55.307Z,8.29
2023-04-16T09:13:58.182Z,8.30
2023-04-16T09:18:00.158Z,8.33
2023-04-16T09:22:02.148Z,8.37
2023-04-16T09:26:05.281Z,8.40
2023-04-16T09:30:24.850Z,8.43
2023-04-16T09:34:27.246Z,8.49
2023-04-16T09:38:49.612Z,8.54
2023-04-16T09:42:52.494Z,8.56
2023-04-16T09:46:54.331Z,8.60
2023-04-16T09:50:56.601Z,8.63
2023-04-16T09:55:00.187Z,8.59
2023-04-16T09:59:02.373Z,8.62
2023-04-16T10:03:05.910Z,8.61
2023-04-16T10:07:08.030Z,8.60
2023-04-16T10:11:10.911Z,8.59
2023-04-16T10:15:12.847Z,8.62
2023-04-16T10:19:17.922Z,8.57
2023-04-16T10:23:22.004Z,8.56
2023-04-16T10:27:24.783Z,8.56
2023-04-16T10:31:28.032Z,8.60
2023-04-16T10:35:30.724Z,8.64
2023-04-16T10:39:37.692Z,8.65
2023-04-16T10:43:50.931Z,8.62
2023-04-16T10:47:57.279Z,8.64
2023-04-16T10:52:02.395Z,8.70
2023-04-16T10:56:05.013Z,8.78
2023-04-16T11:00:22.864Z,8.81
2023-04-16T11:04:25.170Z,8.85
2023-04-16T11:08:30.245Z,8.87
2023-04-16T11:12:38.284Z,8.94
2023-04-16T11:16:40.983Z,8.95
2023-04-16T11:20:42.918Z,8.96
2023-04-16T11:24:45.843Z,8.95
2023-04-16T11:28:47.716Z,8.95
2023-04-16T11:32:49.550Z,8.97
2023-04-16T11:36:52.478Z,9.01
2023-04-16T11:40:54.322Z,8.99
2023-04-16T11:44:58.364Z,9.00
2023-04-16T11:49:00.261Z,8.96
2023-04-16T11:53:06.496Z,8.95
2023-04-16T11:57:08.388Z,8.94
2023-04-16T12:01:10.957Z,8.96
2023-04-16T12:05:35.542Z,8.92
2023-04-16T12:09:40.692Z,9.03
2023-04-16T12:13:42.859Z,9.12
2023-04-16T12:17:44.808Z,9.17
2023-04-16T12:21:48.833Z,9.13
2023-04-16T12:25:52.221Z,9.12
2023-04-16T12:30:05.151Z,9.16
2023-04-16T12:34:07.059Z,9.15
2023-04-16T12:38:09.254Z,9.18
2023-04-16T12:42:12.948Z,9.23
2023-04-16T12:46:14.768Z,9.32
2023-04-16T12:50:16.713Z,9.39
2023-04-16T12:54:18.601Z,9.36
2023-04-16T12:58:20.488Z,9.37
2023-04-16T13:02:22.907Z,9.44
2023-04-16T13:06:24.996Z,9.50
2023-04-16T13:10:28.094Z,9.58
2023-04-16T13:14:29.859Z,9.64
2023-04-16T13:18:31.707Z,9.69
2023-04-16T13:22:33.915Z,9.74
2023-04-16T13:26:35.970Z,9.77
2023-04-16T13:30:37.820Z,9.82
2023-04-16T13:34:39.801Z,9.87
2023-04-16T13:38:42.405Z,9.89
2023-04-16T13:42:44.363Z,9.96
2023-04-16T13:46:47.986Z,9.98
2023-04-16T13:50:49.866Z,9.99
2023-04-16T13:54:51.642Z,10.02
2023-04-16T13:58:56.365Z,9.96
2023-04-16T14:02:58.296Z,9.87
2023-04-16T14:07:00.604Z,9.83
2023-04-16T14:11:02.480Z,9.84
2023-04-16T14:15:06.983Z,9.76
2023-04-16T14:19:09.444Z,9.76
2023-04-16T14:23:12.689Z,9.75
2023-04-16T14:27:14.544Z,9.67
2023-04-16T14:31:18.293Z,9.75
2023-04-16T14:35:20.553Z,9.78
2023-04-16T14:39:22.426Z,9.79
2023-04-16T14:43:24.230Z,9.75
2023-04-16T14:47:26.067Z,9.73
2023-04-16T14:51:27.944Z,9.76
2023-04-16T14:55:29.969Z,9.79
2023-04-16T14:59:32.613Z,9.71
2023-04-16T15:03:34.727Z,9.66
2023-04-16T15:07:37.380Z,9.58
2023-04-16T15:11:39.364Z,9.54
2023-04-16T15:15:41.563Z,9.52
2023-04-16T15:19:43.648Z,9.54
2023-04-16T15:23:45.517Z,9.72
2023-04-16T15:27:47.336Z,9.73
2023-04-16T15:31:49.146Z,9.69
2023-04-16T15:35:51.903Z,9.74
2023-04-16T15:39:53.944Z,9.75
2023-04-16T15:43:55.820Z,9.75
2023-04-16T15:47:57.881Z,9.78
2023-04-16T15:52:00.584Z,9.83
2023-04-16T15:56:02.458Z,9.87
2023-04-16T16:00:14.002Z,9.80
2023-04-16T16:04:16.394Z,9.74
2023-04-16T16:08:18.667Z,9.67
2023-04-16T16:12:20.440Z,9.64
2023-04-16T16:16:22.347Z,9.56
2023-04-16T16:20:25.137Z,9.53
2023-04-16T16:24:28.296Z,9.50
2023-04-16T16:28:30.079Z,9.49
2023-04-16T16:32:31.984Z,9.52
2023-04-16T16:36:36.917Z,9.45
2023-04-16T16:40:39.851Z,9.42
2023-04-16T16:44:41.937Z,9.42
2023-04-16T16:48:43.877Z,9.41
2023-04-16T16:52:45.833Z,9.38
2023-04-16T16:56:47.653Z,9.36
2023-04-16T17:00:49.552Z,9.36
2023-04-16T17:04:52.880Z,9.36
2023-04-16T17:08:54.701Z,9.36
2023-04-16T17:12:56.509Z,9.27
2023-04-16T17:16:58.391Z,9.20
2023-04-16T17:21:00.465Z,9.11
2023-04-16T17:25:02.417Z,9.07
2023-04-16T17:29:04.692Z,8.99
2023-04-16T17:33:06.617Z,8.95
2023-04-16T17:37:08.509Z,8.91
2023-04-16T17:41:10.570Z,8.91
2023-04-16T17:45:12.684Z,8.88
2023-04-16T17:49:14.454Z,8.89
2023-04-16T17:53:16.264Z,8.86
2023-04-16T17:57:18.061Z,8.84
2023-04-16T18:01:19.965Z,8.84
2023-04-16T18:05:21.957Z,8.78
2023-04-16T18:09:23.770Z,8.74
2023-04-16T18:13:25.637Z,8.69
2023-04-16T18:17:27.525Z,8.69
2023-04-16T18:21:30.536Z,8.67
2023-04-16T18:25:34.893Z,8.64
2023-04-16T18:29:39.694Z,8.63
2023-04-16T18:33:55.803Z,8.56
2023-04-16T18:37:59.508Z,8.48
2023-04-16T18:42:01.759Z,8.43
2023-04-16T18:46:03.602Z,8.40
2023-04-16T18:50:09.606Z,8.38
2023-04-16T18:54:11.648Z,8.35
2023-04-16T18:58:13.464Z,8.33
2023-04-16T19:02:15.322Z,8.30
2023-04-16T19:06:17.492Z,8.29
2023-04-16T19:10:19.332Z,8.28
2023-04-16T19:14:21.493Z,8.23
2023-04-16T19:18:23.283Z,8.18
2023-04-16T19:22:25.060Z,8.17
2023-04-16T19:26:27.212Z,8.14
2023-04-16T19:30:29.519Z,8.11
2023-04-16T19:34:31.278Z,8.11
2023-04-16T19:38:33.119Z,8.07
2023-04-16T19:42:34.898Z,8.06
2023-04-16T19:46:37.300Z,8.07
2023-04-16T19:50:41.122Z,8.04
2023-04-16T19:54:43.486Z,8.05
2023-04-16T19:58:45.358Z,8.05
2023-04-16T20:02:47.268Z,8.07
2023-04-16T20:06:49.284Z,8.09
2023-04-16T20:10:53.473Z,8.15
2023-04-16T20:14:55.422Z,8.12
2023-04-16T20:18:57.820Z,8.11
2023-04-16T20:22:59.846Z,8.10
2023-04-16T20:27:01.976Z,8.06
2023-04-16T20:31:03.823Z,8.02
2023-04-16T20:35:10.598Z,8.00
2023-04-16T20:39:12.848Z,8.01
2023-04-16T20:43:18.874Z,8.01
2023-04-16T20:47:22.349Z,8.00
2023-04-16T20:51:24.193Z,8.01
2023-04-16T20:55:26.098Z,7.99
2023-04-16T20:59:27.860Z,7.97
2023-04-16T21:03:29.874Z,7.96
2023-04-16T21:07:31.872Z,7.94
2023-04-16T21:11:35.265Z,7.90
2023-04-16T21:15:42.003Z,7.86
2023-04-16T21:19:43.937Z,7.85
2023-04-16T21:23:46.390Z,7.84
2023-04-16T21:27:48.242Z,7.86
2023-04-16T21:31:50.087Z,7.85
2023-04-16T21:35:52.739Z,7.82
2023-04-16T21:39:54.601Z,7.82
2023-04-16T21:43:56.426Z,7.83
2023-04-16T21:47:58.497Z,7.84
2023-04-16T21:52:02.585Z,7.86
2023-04-16T21:56:04.963Z,7.88
2023-04-16T22:00:14.432Z,7.88
2023-04-16T22:04:16.280Z,7.84
2023-04-16T22:08:25.060Z,7.81
2023-04-16T22:12:27.053Z,7.76
2023-04-16T22:16:28.865Z,7.76
2023-04-16T22:20:30.988Z,7.75
2023-04-16T22:24:32.811Z,7.76
2023-04-16T22:28:34.652Z,7.77
2023-04-16T22:32:36.588Z,7.80
2023-04-16T22:36:38.548Z,7.79
2023-04-16T22:40:40.611Z,7.77
2023-04-16T22:44:42.471Z,7.77
2023-04-16T22:48:44.416Z,7.80
2023-04-16T22:52:46.192Z,7.80
2023-04-16T22:56:48.786Z,7.78
2023-04-16T23:00:52.182Z,7.78
2023-04-16T23:04:53.983Z,7.81
2023-04-16T23:08:55.851Z,7.79
2023-04-16T23:12:57.719Z,7.76
2023-04-16T23:16:59.646Z,7.73
2023-04-16T23:21:01.455Z,7.72
2023-04-16T23:25:03.335Z,7.69
2023-04-16T23:29:05.199Z,7.69
2023-04-16T23:33:07.004Z,7.68
2023-04-16T23:37:08.917Z,7.64
2023-04-16T23:41:10.690Z,7.65
2023-04-16T23:45:12.879Z,7.62
2023-04-16T23:49:14.658Z,7.62
2023-04-16T23:53:16.668Z,7.60
2023-04-16T23:57:18.490Z,7.55
